Time;durP1;ratioP1;P1;durP2;ratioP2;P2;SDS_P1;SDS_P2;PMS_P1;PMS_P2;Temp;Humidity;BMP_temperature;BMP_pressure;BME280_temperature;BME280_humidity;BME280_pressure;Samples;Min_cycle;Max_cycle;Signal;HPM_P1;HPM_P2
2022/09/20 00:01:24;;;;;;;8.43;1.20;;;12.80;77.60;;;;;;5097723;28;20040;-77
2022/09/20 00:03:53;;;;;;;8.40;1.90;;;12.80;77.60;;;;;;5114108;28;20065;-76
2022/09/20 00:06:33;;;;;;;6.65;1.13;;;12.80;77.90;;;;;;5114030;28;20118;-77
2022/09/20 00:09:00;;;;;;;7.88;1.55;;;12.70;77.70;;;;;;5114040;28;20058;-76
2022/09/20 00:11:29;;;;;;;6.13;1.73;;;12.80;77.90;;;;;;5097145;28;20055;-77
2022/09/20 00:13:56;;;;;;;6.20;1.48;;;12.90;77.70;;;;;;5114129;28;20388;-76
2022/09/20 00:16:26;;;;;;;7.63;1.60;;;12.80;77.70;;;;;;5113829;28;20039;-76
2022/09/20 00:18:54;;;;;;;8.95;1.17;;;12.80;77.80;;;;;;5097066;28;20438;-76
2022/09/20 00:21:23;;;;;;;6.60;1.27;;;12.80;77.70;;;;;;5113925;28;20171;-76
2022/09/20 00:23:50;;;;;;;9.73;1.30;;;12.90;77.70;;;;;;5113722;28;20490;-76
2022/09/20 00:26:16;;;;;;;9.77;1.77;;;12.90;77.60;;;;;;5113432;28;20035;-76
2022/09/20 00:28:42;;;;;;;5.60;0.98;;;13.00;77.00;;;;;;5113603;28;20104;-76
2022/09/20 00:31:10;;;;;;;7.63;1.30;;;13.00;76.80;;;;;;5113440;28;20047;-76
2022/09/20 00:36:20;;;;;;;5.18;1.10;;;13.00;76.20;;;;;;5099057;28;20075;-76
2022/09/20 00:38:46;;;;;;;10.80;1.48;;;13.00;76.30;;;;;;5113598;28;20077;-76
2022/09/20 00:41:12;;;;;;;9.35;1.40;;;13.00;76.00;;;;;;5113341;28;20475;-77
2022/09/20 00:43:43;;;;;;;8.07;1.48;;;13.00;75.80;;;;;;5113222;28;20050;-77
2022/09/20 00:46:39;;;;;;;2.60;0.85;;;13.00;75.40;;;;;;5113231;28;20071;-76
2022/09/20 00:49:19;;;;;;;6.43;1.08;;;13.10;74.70;;;;;;5096174;28;20101;-77
2022/09/20 00:51:49;;;;;;;5.53;1.23;;;13.00;74.70;;;;;;5113052;28;20050;-76
2022/09/20 00:54:17;;;;;;;5.30;1.10;;;13.00;74.50;;;;;;5112955;28;20119;-77
2022/09/20 00:56:43;;;;;;;8.93;1.00;;;13.00;74.50;;;;;;5113271;28;20035;-76
2022/09/20 00:59:25;;;;;;;5.07;1.10;;;13.00;74.40;;;;;;5112943;28;20031;-76
2022/09/20 01:02:13;;;;;;;8.27;1.00;;;13.00;74.30;;;;;;5113108;28;20387;-76
2022/09/20 01:04:41;;;;;;;3.97;1.35;;;13.10;73.90;;;;;;5112870;28;20051;-76
2022/09/20 01:07:11;;;;;;;6.00;2.10;;;13.10;74.30;;;;;;5113163;28;20067;-76
2022/09/20 01:09:37;;;;;;;3.33;0.80;;;13.10;74.30;;;;;;5113145;28;20489;-77
2022/09/20 01:12:08;;;;;;;4.18;0.88;;;13.10;75.10;;;;;;5112727;28;20051;-76
2022/09/20 01:14:34;;;;;;;8.85;2.90;;;13.00;75.60;;;;;;5112633;28;20038;-76
2022/09/20 01:17:04;;;;;;;6.82;1.17;;;13.00;76.10;;;;;;5112866;28;20480;-76
2022/09/20 01:19:56;;;;;;;6.22;1.50;;;13.00;76.60;;;;;;5112670;28;20044;-77
2022/09/20 01:22:46;;;;;;;6.72;1.30;;;12.90;77.10;;;;;;5112550;28;20040;-77
2022/09/20 01:25:42;;;;;;;7.13;1.20;;;12.80;77.40;;;;;;5112458;28;20039;-76
2022/09/20 01:28:08;;;;;;;5.45;1.00;;;12.80;77.70;;;;;;5112462;28;20043;-77
2022/09/20 01:31:00;;;;;;;7.85;1.35;;;12.80;77.90;;;;;;5112325;28;20062;-76
2022/09/20 01:34:04;;;;;;;4.90;1.00;;;12.70;77.90;;;;;;5094362;28;20134;-76
2022/09/20 01:36:40;;;;;;;6.87;1.73;;;12.70;77.70;;;;;;5014199;28;20095;-77
2022/09/20 01:39:09;;;;;;;4.35;1.05;;;12.60;77.80;;;;;;5014499;28;20045;-76
2022/09/20 01:41:47;;;;;;;4.95;1.25;;;12.60;77.80;;;;;;5067801;28;20054;-77
2022/09/20 01:44:37;;;;;;;6.55;1.27;;;12.60;77.70;;;;;;5112514;28;20368;-77
2022/09/20 01:47:25;;;;;;;4.78;0.80;;;12.60;77.60;;;;;;5095511;28;20044;-77
2022/09/20 01:50:15;;;;;;;5.05;0.85;;;12.70;76.90;;;;;;5112575;28;20384;-76
2022/09/20 01:53:10;;;;;;;5.90;0.82;;;12.70;76.50;;;;;;5112131;28;20040;-77
2022/09/20 01:55:57;;;;;;;6.68;0.80;;;12.80;76.00;;;;;;5112096;28;20491;-76
2022/09/20 01:58:55;;;;;;;3.33;0.85;;;12.90;75.70;;;;;;5095107;28;20036;-77
2022/09/20 02:01:40;;;;;;;7.03;1.15;;;12.80;76.00;;;;;;5112226;28;20119;-76
2022/09/20 02:04:33;;;;;;;8.82;1.40;;;12.90;76.60;;;;;;5112030;28;20498;-76
2022/09/20 02:07:24;;;;;;;4.93;1.00;;;12.90;76.70;;;;;;5112191;28;20395;-76
2022/09/20 02:10:09;;;;;;;10.65;1.33;;;12.70;77.00;;;;;;5111966;28;20103;-76
2022/09/20 02:12:54;;;;;;;5.03;1.40;;;12.70;77.40;;;;;;5112150;28;20047;-76
2022/09/20 02:16:12;;;;;;;3.92;1.77;;;12.70;77.50;;;;;;5094822;28;20040;-77
2022/09/20 02:19:01;;;;;;;7.07;1.00;;;12.70;77.60;;;;;;4997910;28;20034;-77
2022/09/20 02:21:54;;;;;;;3.40;1.00;;;12.60;77.90;;;;;;5017758;28;20041;-77
2022/09/20 02:24:49;;;;;;;3.13;0.63;;;12.60;78.10;;;;;;5080383;28;20395;-76
2022/09/20 02:27:30;;;;;;;2.75;0.82;;;12.60;78.40;;;;;;5115967;28;20484;-77
2022/09/20 02:30:23;;;;;;;3.53;0.73;;;12.50;78.60;;;;;;5115876;28;20089;-77
2022/09/20 02:33:02;;;;;;;10.50;1.52;;;12.50;78.90;;;;;;5115627;28;20042;-77
2022/09/20 02:35:41;;;;;;;4.43;0.63;;;12.50;79.30;;;;;;5115732;28;20048;-77
2022/09/20 02:38:32;;;;;;;6.18;1.42;;;12.50;79.70;;;;;;5116025;28;20097;-77
2022/09/20 02:41:52;;;;;;;4.50;0.80;;;12.50;79.90;;;;;;5115608;28;20047;-77
2022/09/20 02:44:46;;;;;;;4.13;0.90;;;12.40;80.30;;;;;;5017724;28;20120;-77
2022/09/20 02:47:37;;;;;;;4.47;1.17;;;12.40;80.90;;;;;;5013609;28;20045;-77
2022/09/20 02:50:24;;;;;;;5.20;0.98;;;12.40;81.10;;;;;;5098248;28;20514;-77
2022/09/20 02:53:23;;;;;;;4.72;0.80;;;12.30;81.20;;;;;;5115398;28;20090;-78
2022/09/20 02:55:54;;;;;;;4.97;1.10;;;12.30;81.60;;;;;;5115419;28;20096;-77
2022/09/20 02:58:45;;;;;;;4.22;1.17;;;12.20;82.00;;;;;;5115305;28;20065;-77
2022/09/20 03:01:22;;;;;;;7.15;1.30;;;12.20;82.20;;;;;;5115248;28;20118;-77
2022/09/20 03:04:07;;;;;;;7.15;1.30;;;12.20;82.20;;;;;;5115268;28;20039;-77
2022/09/20 03:06:41;;;;;;;;;;;12.10;82.70;;;;;;5115710;28;20040;-77
2022/09/20 03:09:41;;;;;;;5.03;1.50;;;12.10;82.90;;;;;;5115341;28;20002;-77
2022/09/20 03:12:37;;;;;;;5.22;1.20;;;12.10;83.20;;;;;;5115311;28;20445;-76
2022/09/20 03:15:05;;;;;;;6.35;1.17;;;12.10;83.30;;;;;;5115267;28;20426;-77
2022/09/20 03:18:02;;;;;;;4.20;1.20;;;12.00;83.40;;;;;;5098209;28;20548;-77
2022/09/20 03:20:34;;;;;;;5.88;1.30;;;12.00;83.80;;;;;;5115055;28;20036;-77
2022/09/20 03:23:12;;;;;;;4.82;1.13;;;12.00;84.10;;;;;;5115079;28;20046;-77
2022/09/20 03:25:56;;;;;;;5.03;1.20;;;12.00;83.90;;;;;;5114920;28;20047;-77
2022/09/20 03:28:52;;;;;;;7.43;1.17;;;12.00;83.90;;;;;;5115204;28;20496;-77
2022/09/20 03:31:36;;;;;;;5.50;1.25;;;12.00;83.90;;;;;;5113422;28;20043;-77
2022/09/20 03:34:13;;;;;;;5.05;1.10;;;12.00;83.90;;;;;;5114518;28;20059;-77
2022/09/20 03:37:35;;;;;;;4.97;1.20;;;12.00;84.10;;;;;;5114510;28;20048;-77
2022/09/20 03:40:18;;;;;;;7.68;1.55;;;12.00;84.10;;;;;;5000381;28;20045;-77
2022/09/20 03:43:00;;;;;;;5.75;1.00;;;12.00;83.90;;;;;;5016394;28;20053;-77
2022/09/20 03:45:54;;;;;;;5.10;1.50;;;12.00;84.00;;;;;;5098672;28;20047;-77
2022/09/20 03:48:38;;;;;;;5.45;1.17;;;11.90;84.10;;;;;;5114474;28;20040;-77
2022/09/20 03:51:28;;;;;;;3.83;1.30;;;11.90;84.00;;;;;;5114354;28;20049;-77
2022/09/20 03:54:12;;;;;;;6.47;1.50;;;11.90;84.00;;;;;;5114331;28;20043;-77
2022/09/20 03:56:59;;;;;;;5.57;1.40;;;11.90;84.00;;;;;;5097282;28;20044;-76
2022/09/20 03:59:37;;;;;;;8.13;1.55;;;12.00;84.10;;;;;;5097229;28;20089;-77
2022/09/20 04:02:28;;;;;;;7.22;1.45;;;11.90;84.00;;;;;;5114415;28;20531;-78
2022/09/20 04:05:25;;;;;;;7.15;1.77;;;11.90;84.20;;;;;;5114055;28;20049;-77
2022/09/20 04:08:21;;;;;;;7.65;1.50;;;12.00;84.30;;;;;;5067113;28;20054;-77
2022/09/20 04:11:02;;;;;;;5.07;1.63;;;12.00;84.20;;;;;;5113959;28;20085;-76
2022/09/20 04:13:58;;;;;;;7.63;2.90;;;11.90;84.30;;;;;;5114201;28;20054;-77
2022/09/20 04:16:56;;;;;;;5.22;1.25;;;11.90;84.40;;;;;;5113450;28;20052;-77
2022/09/20 04:19:51;;;;;;;4.05;1.45;;;11.80;84.60;;;;;;5093949;28;20101;-77
2022/09/20 04:22:20;;;;;;;6.68;1.20;;;11.90;84.60;;;;;;5104732;28;20055;-77
2022/09/20 04:25:01;;;;;;;6.82;1.42;;;11.90;84.80;;;;;;5096611;28;20047;-77
2022/09/20 04:27:36;;;;;;;3.33;1.10;;;11.90;84.60;;;;;;5113963;28;20449;-76
2022/09/20 04:30:17;;;;;;;4.82;1.13;;;12.00;84.60;;;;;;5113577;28;20040;-75
2022/09/20 04:32:48;;;;;;;5.75;1.65;;;12.10;84.40;;;;;;5113450;28;20040;-76
2022/09/20 04:38:16;;;;;;;8.03;2.60;;;11.90;84.90;;;;;;5113416;28;20097;-76
2022/09/20 04:41:15;;;;;;;7.85;1.40;;;12.00;85.10;;;;;;5113422;28;20499;-75
2022/09/20 04:44:20;;;;;;;4.10;1.42;;;12.00;85.30;;;;;;5113117;28;20039;-76
2022/09/20 04:46:58;;;;;;;4.47;1.60;;;12.00;85.80;;;;;;5113567;28;20120;-76
2022/09/20 04:49:47;;;;;;;4.07;1.10;;;12.10;85.50;;;;;;5096166;28;20039;-76
2022/09/20 04:52:55;;;;;;;5.10;1.40;;;12.00;85.50;;;;;;5113321;28;20070;-76
2022/09/20 04:55:44;;;;;;;8.43;1.92;;;12.00;85.70;;;;;;5113134;28;20036;-75
2022/09/20 04:58:35;;;;;;;3.47;1.48;;;12.00;85.90;;;;;;5113055;28;20100;-75
2022/09/20 05:01:31;;;;;;;5.55;1.55;;;11.90;85.90;;;;;;5112884;28;20032;-76
2022/09/20 05:04:19;;;;;;;8.30;1.88;;;12.00;86.00;;;;;;5113192;28;20043;-75
2022/09/20 05:07:14;;;;;;;5.07;1.50;;;11.90;85.90;;;;;;5112953;28;20050;-75
2022/09/20 05:09:51;;;;;;;6.18;1.30;;;11.90;85.90;;;;;;5025226;28;20460;-76
2022/09/20 05:12:40;;;;;;;6.38;1.40;;;11.90;86.10;;;;;;5112965;28;20078;-75
2022/09/20 05:15:42;;;;;;;10.55;1.60;;;11.90;85.90;;;;;;5095722;28;20066;-76
2022/09/20 05:18:45;;;;;;;5.97;1.48;;;11.90;85.70;;;;;;5112537;28;20078;-76
2022/09/20 05:21:36;;;;;;;8.73;1.38;;;11.90;85.80;;;;;;5112234;28;20043;-75
2022/09/20 05:24:29;;;;;;;10.02;2.15;;;11.90;85.60;;;;;;5112054;28;20492;-76
2022/09/20 05:27:57;;;;;;;10.10;1.85;;;11.90;85.50;;;;;;5112400;28;20036;-76
2022/09/20 05:30:47;;;;;;;6.07;1.35;;;11.90;85.60;;;;;;5014678;28;20374;-76
2022/09/20 05:33:43;;;;;;;6.40;1.85;;;11.90;85.50;;;;;;5107942;28;20491;-76
2022/09/20 05:36:48;;;;;;;11.45;1.90;;;12.00;85.70;;;;;;5112418;28;20442;-76
2022/09/20 05:39:42;;;;;;;7.63;1.50;;;11.90;85.50;;;;;;5057186;28;20508;-76
2022/09/20 05:42:19;;;;;;;5.38;1.83;;;11.80;85.60;;;;;;5112318;28;20039;-76
2022/09/20 05:45:00;;;;;;;6.47;1.67;;;11.80;85.70;;;;;;5112292;28;20491;-76
2022/09/20 05:47:44;;;;;;;4.88;2.10;;;11.80;85.90;;;;;;5112290;28;20328;-77
2022/09/20 05:50:18;;;;;;;16.33;1.93;;;11.80;85.80;;;;;;5112513;28;20078;-76
2022/09/20 05:53:04;;;;;;;8.93;2.40;;;11.80;85.70;;;;;;5112347;28;20273;-76
2022/09/20 05:55:36;;;;;;;6.05;1.52;;;11.80;85.70;;;;;;5111627;28;20081;-77
2022/09/20 05:58:38;;;;;;;7.45;1.40;;;11.80;85.60;;;;;;5112285;28;20035;-76
2022/09/20 06:01:29;;;;;;;7.03;1.70;;;11.80;85.60;;;;;;5111993;28;20035;-76
2022/09/20 06:04:11;;;;;;;11.45;1.60;;;11.80;85.60;;;;;;5112036;28;20039;-78
2022/09/20 06:07:06;;;;;;;5.68;1.42;;;11.80;85.50;;;;;;5111998;28;20122;-75
2022/09/20 06:09:57;;;;;;;7.55;1.50;;;11.80;85.50;;;;;;5111962;28;20051;-75
2022/09/20 06:12:37;;;;;;;7.15;1.80;;;11.90;85.20;;;;;;5112029;28;20047;-78
2022/09/20 06:15:33;;;;;;;7.82;1.70;;;11.90;85.20;;;;;;5111792;28;20069;-76
2022/09/20 06:18:23;;;;;;;4.60;1.63;;;12.00;85.00;;;;;;5095107;28;20044;-77
2022/09/20 06:21:26;;;;;;;6.55;1.98;;;12.00;84.70;;;;;;5095247;28;20388;-77
2022/09/20 06:23:57;;;;;;;8.48;2.63;;;12.10;84.40;;;;;;5111886;28;20046;-77
2022/09/20 06:26:28;;;;;;;6.25;1.45;;;12.10;84.10;;;;;;5111991;28;20046;-77
2022/09/20 06:28:58;;;;;;;7.97;1.42;;;12.20;84.00;;;;;;5094875;28;20040;-75
2022/09/20 06:31:25;;;;;;;10.65;2.85;;;12.20;83.80;;;;;;5111712;28;20043;-75
2022/09/20 06:34:03;;;;;;;6.93;1.27;;;12.30;83.90;;;;;;5094516;28;20063;-75
2022/09/20 06:42:10;;;;;;;5.03;1.33;;;12.30;83.80;;;;;;5111807;28;20184;-74
2022/09/20 06:44:40;;;;;;;4.20;0.82;;;12.30;83.90;;;;;;5100463;28;20118;-74
2022/09/20 06:47:08;;;;;;;4.72;1.27;;;12.40;83.70;;;;;;5088189;28;20498;-75
2022/09/20 06:49:34;;;;;;;7.32;1.38;;;12.50;83.40;;;;;;5111513;28;20047;-75
2022/09/20 06:52:03;;;;;;;7.95;1.48;;;12.50;83.20;;;;;;5111726;28;20035;-75
2022/09/20 06:54:29;;;;;;;5.03;1.58;;;12.50;83.20;;;;;;5111655;28;20039;-76
2022/09/20 06:56:55;;;;;;;7.78;1.38;;;12.60;83.00;;;;;;5111617;28;20047;-76
2022/09/20 06:59:21;;;;;;;6.68;1.58;;;12.60;83.20;;;;;;5108581;28;20067;-75
2022/09/20 07:01:46;;;;;;;6.25;1.23;;;12.60;83.10;;;;;;5111417;28;20043;-77
2022/09/20 07:04:12;;;;;;;7.72;1.70;;;12.70;83.30;;;;;;5111463;28;20039;-76
2022/09/20 07:06:39;;;;;;;8.82;1.88;;;12.60;83.10;;;;;;5098468;28;20040;-76
2022/09/20 07:09:05;;;;;;;11.07;1.92;;;12.70;82.90;;;;;;5077958;28;20032;-76
2022/09/20 07:11:33;;;;;;;7.95;2.20;;;12.70;82.70;;;;;;5094655;28;20119;-76
2022/09/20 07:13:59;;;;;;;10.60;1.73;;;12.70;82.70;;;;;;5078440;28;20528;-76
2022/09/20 07:16:25;;;;;;;8.90;1.35;;;12.80;82.60;;;;;;5077860;28;20040;-76
2022/09/20 07:18:52;;;;;;;5.20;1.50;;;12.80;82.60;;;;;;5095000;28;20399;-76
2022/09/20 07:21:19;;;;;;;7.38;1.50;;;12.80;82.40;;;;;;5094894;28;20040;-76
2022/09/20 07:23:45;;;;;;;6.72;1.20;;;12.80;82.20;;;;;;5094592;28;20043;-77
2022/09/20 07:26:26;;;;;;;6.03;1.30;;;12.80;82.40;;;;;;5094810;28;20051;-76
2022/09/20 07:28:52;;;;;;;8.10;1.73;;;12.90;82.30;;;;;;5094414;28;20054;-76
2022/09/20 07:31:20;;;;;;;5.70;1.60;;;12.90;82.20;;;;;;5094322;28;20119;-76
2022/09/20 07:33:45;;;;;;;5.45;1.60;;;12.90;82.30;;;;;;5077534;28;20060;-75
2022/09/20 07:36:11;;;;;;;5.13;1.27;;;12.90;82.20;;;;;;5094311;28;20614;-78
2022/09/20 07:38:38;;;;;;;5.72;1.83;;;13.00;82.20;;;;;;5094200;28;20092;-76
2022/09/20 07:41:04;;;;;;;6.18;1.85;;;13.10;82.00;;;;;;5094136;28;20055;-77
2022/09/20 07:43:30;;;;;;;6.05;1.80;;;13.30;81.80;;;;;;5094484;28;20040;-76
2022/09/20 07:45:58;;;;;;;3.50;1.25;;;13.30;81.70;;;;;;5093920;28;20534;-77
2022/09/20 07:48:26;;;;;;;6.55;1.50;;;13.40;81.40;;;;;;5094101;28;20051;-77
2022/09/20 07:50:54;;;;;;;4.30;1.25;;;13.50;80.80;;;;;;5077131;28;20097;-76
2022/09/20 07:53:19;;;;;;;3.83;1.23;;;13.60;79.70;;;;;;5093955;28;20043;-77
2022/09/20 07:56:12;;;;;;;5.35;1.35;;;13.70;79.60;;;;;;5077311;28;20052;-77
2022/09/20 07:58:38;;;;;;;6.47;1.30;;;13.80;78.90;;;;;;5093902;28;20040;-76
2022/09/20 08:01:11;;;;;;;5.50;1.33;;;14.00;78.30;;;;;;5076899;28;20047;-76
2022/09/20 08:03:37;;;;;;;5.55;1.23;;;14.00;76.30;;;;;;5094079;28;20419;-77
2022/09/20 08:06:09;;;;;;;8.45;1.50;;;14.20;76.30;;;;;;5093817;28;20036;-77
2022/09/20 08:08:36;;;;;;;5.43;1.60;;;14.30;75.60;;;;;;5093695;28;20040;-77
2022/09/20 08:11:06;;;;;;;6.85;1.50;;;14.40;75.30;;;;;;5093561;28;20048;-77
2022/09/20 08:13:36;;;;;;;5.95;1.08;;;14.50;75.00;;;;;;5076721;28;20044;-77
2022/09/20 08:16:04;;;;;;;5.05;0.80;;;14.70;73.60;;;;;;5076277;28;20131;-77
2022/09/20 08:18:30;;;;;;;2.70;0.82;;;14.80;72.40;;;;;;5093318;28;20480;-77
2022/09/20 08:21:05;;;;;;;2.83;1.00;;;14.90;71.00;;;;;;5093316;28;20481;-77
2022/09/20 08:23:36;;;;;;;3.45;1.00;;;14.90;70.10;;;;;;5093588;28;20435;-76
2022/09/20 08:26:02;;;;;;;3.72;0.90;;;14.90;69.10;;;;;;5093561;28;20048;-76
2022/09/20 08:28:30;;;;;;;3.83;1.10;;;15.00;68.60;;;;;;5076439;28;20083;-77
2022/09/20 08:31:10;;;;;;;3.65;1.30;;;15.10;67.90;;;;;;5093458;28;20044;-77
2022/09/20 08:33:37;;;;;;;2.80;0.90;;;15.30;69.10;;;;;;5093268;28;20085;-77
2022/09/20 08:36:03;;;;;;;5.70;1.33;;;15.20;70.30;;;;;;5093111;28;20052;-76
2022/09/20 08:38:31;;;;;;;5.22;1.30;;;15.30;71.20;;;;;;5093389;28;20097;-77
2022/09/20 08:41:02;;;;;;;3.42;0.98;;;15.20;71.10;;;;;;5093145;28;20063;-77
2022/09/20 08:43:34;;;;;;;3.72;1.10;;;15.10;71.50;;;;;;5095696;28;20047;-76
2022/09/20 08:46:03;;;;;;;3.60;0.93;;;15.10;71.80;;;;;;5101056;28;20111;-76
2022/09/20 08:48:32;;;;;;;7.53;2.30;;;15.10;72.30;;;;;;5093175;28;20040;-76
2022/09/20 08:51:00;;;;;;;8.50;1.67;;;15.00;73.20;;;;;;5092564;28;20092;-77
2022/09/20 08:53:27;;;;;;;8.68;2.20;;;15.00;73.10;;;;;;5093016;28;20543;-76
2022/09/20 08:55:56;;;;;;;4.55;1.02;;;15.00;73.20;;;;;;5075782;28;20075;-76
2022/09/20 08:58:23;;;;;;;6.80;1.15;;;15.00;73.70;;;;;;5092977;28;20062;-76
2022/09/20 09:00:49;;;;;;;6.53;1.15;;;15.00;73.70;;;;;;5076221;28;20036;-75
2022/09/20 09:03:16;;;;;;;3.83;1.05;;;15.00;73.00;;;;;;5092507;28;20542;-75
2022/09/20 09:05:51;;;;;;;5.32;1.00;;;15.10;72.60;;;;;;5093815;28;20492;-76
2022/09/20 09:08:32;;;;;;;7.72;1.10;;;15.10;72.70;;;;;;5092466;28;20054;-75
2022/09/20 09:11:08;;;;;;;8.00;2.25;;;15.20;72.50;;;;;;5075775;28;20127;-76
2022/09/20 09:13:55;;;;;;;4.28;0.90;;;15.20;72.40;;;;;;5075575;28;20097;-77
2022/09/20 09:16:24;;;;;;;5.32;1.42;;;15.20;71.80;;;;;;5075402;28;20522;-76
2022/09/20 09:18:50;;;;;;;5.43;1.10;;;15.30;71.00;;;;;;5092650;28;20047;-77
2022/09/20 09:21:22;;;;;;;2.90;0.70;;;15.40;71.00;;;;;;5092270;28;20472;-76
2022/09/20 09:24:05;;;;;;;15.18;1.40;;;15.60;71.20;;;;;;5092534;28;20062;-76
2022/09/20 09:26:39;;;;;;;7.32;1.45;;;15.70;69.10;;;;;;5092521;28;20107;-75
2022/09/20 09:29:23;;;;;;;5.25;1.02;;;15.80;68.80;;;;;;5091045;28;20047;-76
2022/09/20 09:31:53;;;;;;;4.60;1.00;;;15.80;67.50;;;;;;5075282;28;20044;-76
2022/09/20 09:34:34;;;;;;;5.50;0.98;;;15.80;66.80;;;;;;5091876;28;20062;-76
2022/09/20 09:37:00;;;;;;;6.22;1.15;;;15.80;67.70;;;;;;5091818;28;20520;-77
2022/09/20 09:39:28;;;;;;;2.78;0.80;;;15.70;66.90;;;;;;5091932;28;20126;-77
2022/09/20 09:41:55;;;;;;;4.07;0.90;;;15.70;67.00;;;;;;5091976;28;20115;-75
2022/09/20 09:44:28;;;;;;;3.00;0.90;;;15.70;66.50;;;;;;5091974;28;20169;-77
2022/09/20 09:46:55;;;;;;;4.55;0.85;;;15.70;66.00;;;;;;5092127;28;20047;-76
2022/09/20 09:49:26;;;;;;;3.50;0.88;;;15.70;65.20;;;;;;5092201;28;20044;-76
2022/09/20 09:52:05;;;;;;;6.53;1.23;;;16.00;64.80;;;;;;5092071;28;20051;-76
2022/09/20 09:54:37;;;;;;;4.60;1.00;;;16.30;64.70;;;;;;5091930;28;20048;-76
2022/09/20 09:57:31;;;;;;;7.25;1.17;;;16.50;64.50;;;;;;5092047;28;20044;-76
2022/09/20 10:00:01;;;;;;;7.28;1.25;;;16.50;65.30;;;;;;5091535;28;20096;-75
2022/09/20 10:02:59;;;;;;;6.53;0.90;;;16.50;66.30;;;;;;5091245;28;20046;-77
2022/09/20 10:05:34;;;;;;;3.75;0.95;;;16.40;66.60;;;;;;5091984;28;20079;-75
2022/09/20 10:08:27;;;;;;;5.47;0.93;;;16.30;67.10;;;;;;5091970;28;20551;-76
2022/09/20 10:11:09;;;;;;;3.15;0.60;;;16.20;66.90;;;;;;5091851;28;20048;-76
2022/09/20 10:13:53;;;;;;;2.97;0.90;;;16.10;67.10;;;;;;5074985;28;20082;-77
2022/09/20 10:16:38;;;;;;;5.00;0.80;;;16.10;68.20;;;;;;5074976;28;20040;-77
2022/09/20 10:19:09;;;;;;;4.03;1.10;;;16.10;70.90;;;;;;5074561;28;20101;-77
2022/09/20 10:21:55;;;;;;;4.45;1.77;;;15.90;72.00;;;;;;5091465;28;20035;-77
2022/09/20 10:24:51;;;;;;;8.57;1.38;;;15.70;72.80;;;;;;5091683;28;20090;-77
2022/09/20 10:27:47;;;;;;;6.45;1.00;;;15.60;73.30;;;;;;5074796;28;20040;-77
2022/09/20 10:30:17;;;;;;;14.95;1.75;;;15.50;73.80;;;;;;5091803;28;20035;-76
2022/09/20 10:32:48;;;;;;;5.15;0.98;;;15.40;73.90;;;;;;5091736;28;20484;-77
2022/09/20 10:35:55;;;;;;;4.50;1.35;;;15.40;73.20;;;;;;5091502;28;20040;-77
2022/09/20 10:38:53;;;;;;;6.13;1.05;;;15.40;72.40;;;;;;5038822;28;20452;-77
2022/09/20 10:44:49;;;;;;;3.72;0.80;;;15.40;72.20;;;;;;5095652;28;20047;-76
2022/09/20 10:47:20;;;;;;;5.60;1.30;;;15.40;72.20;;;;;;5078626;28;20062;-76
2022/09/20 10:50:05;;;;;;;5.20;1.40;;;15.50;72.40;;;;;;5095152;28;20040;-77
2022/09/20 10:52:47;;;;;;;4.97;0.90;;;15.50;71.90;;;;;;5095194;28;20047;-76
2022/09/20 10:55:36;;;;;;;5.93;1.23;;;15.60;68.60;;;;;;5095447;28;20040;-76
2022/09/20 10:58:39;;;;;;;3.45;1.02;;;15.80;65.40;;;;;;5095417;28;20036;-77
2022/09/20 11:01:41;;;;;;;5.65;1.15;;;16.10;64.50;;;;;;5078116;28;20365;-76
2022/09/20 11:04:21;;;;;;;3.28;0.90;;;16.50;64.50;;;;;;5094677;28;20442;-77
2022/09/20 11:07:03;;;;;;;4.53;1.05;;;16.60;66.50;;;;;;5094958;28;20229;-76
2022/09/20 11:09:37;;;;;;;2.67;0.73;;;16.60;66.30;;;;;;5095018;28;20098;-76
2022/09/20 11:12:15;;;;;;;3.90;0.90;;;16.50;61.50;;;;;;5095275;28;20055;-76
2022/09/20 11:14:48;;;;;;;6.93;1.33;;;16.60;60.60;;;;;;5094736;28;20457;-76
2022/09/20 11:17:22;;;;;;;3.58;1.02;;;16.60;60.90;;;;;;5094865;28;20043;-76
2022/09/20 11:20:18;;;;;;;5.55;1.10;;;16.70;60.70;;;;;;5094888;28;20048;-76
2022/09/20 11:22:54;;;;;;;7.97;1.63;;;16.60;60.10;;;;;;5093252;28;20044;-76
2022/09/20 11:25:28;;;;;;;5.00;1.00;;;16.60;59.10;;;;;;5094901;28;20510;-77
2022/09/20 11:28:05;;;;;;;6.90;1.27;;;16.50;62.80;;;;;;5094464;28;20040;-76
2022/09/20 11:30:37;;;;;;;6.47;1.42;;;16.40;66.60;;;;;;5094537;28;20066;-76
2022/09/20 11:33:44;;;;;;;4.80;1.30;;;16.30;68.20;;;;;;5094162;28;20130;-76
2022/09/20 11:36:18;;;;;;;5.68;1.10;;;16.20;69.10;;;;;;5076999;28;20135;-76
2022/09/20 11:38:55;;;;;;;6.85;1.73;;;16.10;69.30;;;;;;5094469;28;20119;-76
2022/09/20 11:41:28;;;;;;;4.90;1.45;;;16.10;69.00;;;;;;5094387;28;20040;-75
2022/09/20 11:44:01;;;;;;;6.53;1.17;;;16.10;68.70;;;;;;5077318;28;20066;-76
2022/09/20 11:46:32;;;;;;;5.40;1.10;;;16.10;68.50;;;;;;5094366;28;20122;-76
2022/09/20 11:49:10;;;;;;;4.40;0.80;;;16.20;67.90;;;;;;5094312;28;20054;-76
2022/09/20 11:51:57;;;;;;;3.50;0.93;;;16.20;66.70;;;;;;5093084;28;20048;-77
2022/09/20 11:55:02;;;;;;;1.70;0.70;;;16.20;66.30;;;;;;5093873;28;20097;-79
2022/09/20 11:57:28;;;;;;;3.72;1.38;;;16.30;65.90;;;;;;5094023;28;20051;-77
2022/09/20 11:59:58;;;;;;;5.65;0.95;;;16.30;65.70;;;;;;5104199;28;20759;-77
2022/09/20 12:02:52;;;;;;;5.30;1.25;;;16.30;65.90;;;;;;5108390;28;20047;-76
2022/09/20 12:05:40;;;;;;;5.93;0.95;;;16.30;64.70;;;;;;5111443;28;20123;-76
2022/09/20 12:08:30;;;;;;;3.05;1.10;;;16.30;65.10;;;;;;5114516;28;20414;-76
2022/09/20 12:11:05;;;;;;;4.15;0.80;;;16.30;64.70;;;;;;5096100;28;20441;-76
2022/09/20 12:13:35;;;;;;;8.57;1.52;;;16.20;65.80;;;;;;5113806;28;20050;-76
2022/09/20 12:16:02;;;;;;;6.15;1.10;;;16.30;65.80;;;;;;5114146;28;20453;-76
2022/09/20 12:18:44;;;;;;;3.85;1.20;;;16.40;65.50;;;;;;5113994;28;20035;-76
2022/09/20 12:21:14;;;;;;;5.55;1.25;;;16.40;65.40;;;;;;5113748;28;20031;-76
2022/09/20 12:23:52;;;;;;;3.72;1.00;;;16.40;64.90;;;;;;5114201;28;20395;-77
2022/09/20 12:26:19;;;;;;;4.65;0.85;;;16.40;64.20;;;;;;5113451;28;20047;-76
2022/09/20 12:28:51;;;;;;;6.30;1.30;;;16.50;63.50;;;;;;5113553;28;20082;-77
2022/09/20 12:31:28;;;;;;;2.45;0.70;;;16.60;62.10;;;;;;5096994;28;20391;-76
2022/09/20 12:33:58;;;;;;;4.45;0.90;;;16.60;62.30;;;;;;5113369;28;20418;-76
2022/09/20 12:36:25;;;;;;;4.47;1.70;;;16.70;61.80;;;;;;5113643;28;20403;-76
2022/09/20 12:39:02;;;;;;;4.63;0.70;;;16.80;62.40;;;;;;5113783;28;20042;-78
2022/09/20 12:41:43;;;;;;;4.80;0.98;;;16.90;62.10;;;;;;5096510;28;20071;-78
2022/09/20 12:44:47;;;;;;;3.38;0.93;;;17.00;60.20;;;;;;5113779;28;20043;-77
2022/09/20 12:47:12;;;;;;;7.18;1.10;;;17.10;60.30;;;;;;5113330;28;20042;-76
2022/09/20 12:52:56;;;;;;;3.92;0.82;;;17.40;60.40;;;;;;5113228;28;20049;-78
2022/09/20 12:55:50;;;;;;;4.20;0.90;;;17.50;59.30;;;;;;5113090;28;20128;-78
2022/09/20 12:58:27;;;;;;;3.08;0.85;;;18.00;58.50;;;;;;5096053;28;20093;-79
2022/09/20 13:00:58;;;;;;;4.32;0.80;;;18.40;56.70;;;;;;5113426;28;20504;-78
2022/09/20 13:03:36;;;;;;;5.63;1.10;;;18.50;56.70;;;;;;5112859;28;20043;-79
2022/09/20 13:06:09;;;;;;;2.25;0.75;;;18.50;56.60;;;;;;5113306;28;20039;-78
2022/09/20 13:09:00;;;;;;;3.50;0.90;;;18.40;55.60;;;;;;5112651;28;20395;-78
2022/09/20 13:11:40;;;;;;;3.75;0.50;;;18.20;54.70;;;;;;5112786;28;20046;-77
2022/09/20 13:14:26;;;;;;;5.20;0.93;;;18.30;54.50;;;;;;5112904;28;20039;-79
2022/09/20 13:17:12;;;;;;;3.33;0.90;;;18.60;54.40;;;;;;5112745;28;20496;-79
2022/09/20 13:19:46;;;;;;;3.03;1.15;;;19.00;54.30;;;;;;5112825;28;20047;-78
2022/09/20 13:22:30;;;;;;;4.18;0.75;;;19.20;52.10;;;;;;5096017;28;20058;-78
2022/09/20 13:25:01;;;;;;;3.40;0.70;;;19.40;50.80;;;;;;5096046;28;20138;-77
2022/09/20 13:27:53;;;;;;;3.53;0.80;;;19.50;50.90;;;;;;5112745;28;20105;-79
2022/09/20 13:30:25;;;;;;;6.05;1.00;;;19.70;51.20;;;;;;5065795;28;20040;-78
2022/09/20 13:32:52;;;;;;;4.88;1.10;;;19.90;51.30;;;;;;5112632;28;20031;-78
2022/09/20 13:35:22;;;;;;;5.32;1.30;;;20.00;51.30;;;;;;5112398;28;20400;-79
2022/09/20 13:38:06;;;;;;;4.10;0.77;;;20.10;50.80;;;;;;5112775;28;20455;-78
2022/09/20 13:40:38;;;;;;;4.20;0.88;;;20.20;50.40;;;;;;5112750;28;20064;-79
2022/09/20 13:43:19;;;;;;;3.15;1.05;;;20.10;49.10;;;;;;5112333;28;20042;-78
2022/09/20 13:45:46;;;;;;;4.45;1.00;;;20.10;48.70;;;;;;5095405;28;20043;-79
2022/09/20 13:48:12;;;;;;;3.83;0.80;;;20.20;48.90;;;;;;5112607;28;20120;-79
2022/09/20 13:50:39;;;;;;;3.65;1.15;;;20.00;50.00;;;;;;5112583;28;20047;-78
2022/09/20 13:53:15;;;;;;;3.30;1.08;;;20.10;50.40;;;;;;5112388;28;20036;-79
2022/09/20 13:55:44;;;;;;;5.70;1.52;;;20.30;53.50;;;;;;5113100;28;20050;-78
2022/09/20 13:58:22;;;;;;;4.25;0.90;;;20.40;53.60;;;;;;5112868;28;20082;-78
2022/09/20 14:00:57;;;;;;;4.50;1.20;;;20.50;53.50;;;;;;5112203;28;20039;-80
2022/09/20 14:03:25;;;;;;;4.78;1.13;;;20.60;52.10;;;;;;5095255;28;20047;-79
2022/09/20 14:05:55;;;;;;;5.65;1.40;;;20.60;52.50;;;;;;5095423;28;20118;-79